»·PEaware :: USC243 KLAS-KMRY

USC243 :: KLAS-KMRY

FLIGHT INFORMATION

Flight Status: Arrived
Operator: Unknown
More flights by this operator :: More flights under this callsign
Pilot: Andy P. (22680)
Aircraft: GATES LEARJET LEARJET 35/36
(LJ35)
More flights by this aircraft type
Origin: KLAS McCarran Intl
United States
Destination: KMRY Monterey Peninsula
United States
More flights between these airports :: More routes between these airports
Route: SHEAD1 KENNO Q162 NTELL PXN SNS
File this flight plan on PilotEdge
Remarks:
Altitude:
(Current/Filed)
36,000ft
Speed:
(Current/Filed)
465kts
Departed: 20-Jul-19 06:35 PM
Arrived: 20-Jul-19 07:36 PM
Distance/Time
Traveled:
326nm/1:00
Distance/Time
To Go:
Arrived

Flight Plot

Page will automatically refresh every two minutes.

Flight plan parsing failed; only flown route is shown


Map Options




Map Legend


Flown Route
Filed Route
Departure Airport
Arrival Airport
Navaid (VOR, NDB)
Fix

Horizontal Profiles

Position Reports

Time Latitude Longitude Heading Altitude Ground
Speed
20-Jul-19 18:15 36.082947 -115.125522 189 2184ft 0kts
20-Jul-19 18:16 36.082947 -115.125522 189 2184ft 0kts
20-Jul-19 18:17 36.082947 -115.125522 189 2184ft 0kts
20-Jul-19 18:18 36.082947 -115.125522 189 2184ft 0kts
20-Jul-19 18:19 36.082947 -115.125522 189 2184ft 0kts
20-Jul-19 18:20 36.082947 -115.125522 189 2184ft 0kts
20-Jul-19 18:21 36.082947 -115.125522 189 2184ft 0kts
20-Jul-19 18:22 36.082947 -115.125522 189 2184ft 0kts
20-Jul-19 18:23 36.082947 -115.125522 189 2184ft 0kts
20-Jul-19 18:24 36.082947 -115.125522 189 2184ft 0kts
20-Jul-19 18:25 36.082947 -115.125522 189 2184ft 0kts
20-Jul-19 18:26 36.082947 -115.125522 189 2184ft 0kts
20-Jul-19 18:27 36.082947 -115.125522 189 2184ft 0kts
20-Jul-19 18:28 36.082947 -115.125522 189 2184ft 0kts
20-Jul-19 18:29 36.082947 -115.125522 189 2184ft 0kts
20-Jul-19 18:30 36.082092 -115.126143 196 2184ft 11kts
20-Jul-19 18:31 36.078401 -115.125872 100 2184ft 14kts
20-Jul-19 18:32 36.078350 -115.123450 87 2184ft 0kts
20-Jul-19 18:33 36.077368 -115.121371 148 2184ft 13kts
20-Jul-19 18:34 36.076590 -115.150288 271 2699ft 173kts
20-Jul-19 18:36 36.077719 -115.228385 251 5725ft 265kts
20-Jul-19 18:37 36.022169 -115.275647 209 6985ft 219kts
20-Jul-19 18:38 35.968980 -115.306419 214 6901ft 218kts
20-Jul-19 18:39 35.920279 -115.363425 224 8194ft 268kts
20-Jul-19 18:40 35.886538 -115.440677 272 9235ft 268kts
20-Jul-19 18:41 35.888669 -115.550012 270 10883ft 373kts
20-Jul-19 18:42 35.890996 -115.678337 270 11301ft 363kts
20-Jul-19 18:43 35.893132 -115.806405 270 15137ft 382kts
20-Jul-19 18:44 35.895585 -115.940941 273 18825ft 401kts
20-Jul-19 18:45 35.961792 -116.052622 319 22504ft 434kts
20-Jul-19 18:46 36.054204 -116.153805 315 26132ft 455kts
20-Jul-19 18:47 36.148892 -116.262952 314 28807ft 474kts
20-Jul-19 18:48 36.245288 -116.374662 313 31677ft 470kts
20-Jul-19 18:49 36.339512 -116.484276 312 34353ft 461kts
20-Jul-19 18:50 36.433260 -116.593767 312 35903ft 467kts
20-Jul-19 18:51 36.527209 -116.703804 312 35929ft 464kts
20-Jul-19 18:51 36.613136 -116.784595 325 35932ft 470kts
20-Jul-19 18:53 36.743151 -116.884009 324 35942ft 469kts
20-Jul-19 18:54 36.854567 -116.969065 324 35951ft 471kts
20-Jul-19 18:55 36.966931 -117.055069 324 35965ft 474kts
20-Jul-19 18:55 37.060667 -117.127037 324 35973ft 475kts
20-Jul-19 18:57 37.192048 -117.228264 324 35973ft 476kts
20-Jul-19 18:58 37.299857 -117.321418 305 35984ft 460kts
20-Jul-19 18:58 37.324329 -117.444252 265 35993ft 440kts
20-Jul-19 18:59 37.326132 -117.598316 271 35986ft 441kts
20-Jul-19 19:01 37.340672 -117.777427 273 35969ft 444kts
20-Jul-19 19:01 37.349602 -117.906760 264 35959ft 446kts
20-Jul-19 19:02 37.335832 -118.062450 262 35951ft 450kts
20-Jul-19 19:03 37.322374 -118.218035 261 35948ft 445kts
20-Jul-19 19:04 37.308598 -118.372384 261 35947ft 444kts
20-Jul-19 19:05 37.294583 -118.526674 261 35961ft 443kts
20-Jul-19 19:06 37.280430 -118.680156 261 36021ft 442kts
20-Jul-19 19:07 37.242989 -118.825042 247 36063ft 438kts
20-Jul-19 19:08 37.198412 -118.966747 246 36113ft 437kts
20-Jul-19 19:09 37.153155 -119.108738 246 36044ft 439kts
20-Jul-19 19:10 37.107460 -119.251174 246 35264ft 440kts
20-Jul-19 19:11 37.061944 -119.392324 246 33390ft 437kts
20-Jul-19 19:12 37.015079 -119.536904 246 31515ft 460kts
20-Jul-19 19:13 36.965844 -119.688076 246 29593ft 476kts
20-Jul-19 19:14 36.915632 -119.841697 247 27619ft 477kts
20-Jul-19 19:15 36.877019 -120.000566 254 25651ft 483kts
20-Jul-19 19:16 36.843536 -120.164810 254 23637ft 473kts
20-Jul-19 19:17 36.817733 -120.313628 268 22079ft 421kts
20-Jul-19 19:18 36.792683 -120.453895 253 19704ft 415kts
20-Jul-19 19:19 36.765334 -120.589363 255 17732ft 385kts
20-Jul-19 19:20 36.741229 -120.717969 255 16076ft 393kts
20-Jul-19 19:21 36.715680 -120.855986 255 14294ft 419kts
20-Jul-19 19:22 36.690436 -120.992055 255 12531ft 369kts
20-Jul-19 19:23 36.669579 -121.103652 255 11084ft 303kts
20-Jul-19 19:24 36.650946 -121.202686 256 9812ft 286kts
20-Jul-19 19:25 36.633056 -121.297377 256 8591ft 272kts
20-Jul-19 19:26 36.616269 -121.385931 256 7448ft 255kts
20-Jul-19 19:27 36.600857 -121.466898 256 6404ft 244kts
20-Jul-19 19:28 36.585486 -121.547315 256 5364ft 231kts
20-Jul-19 19:29 36.566604 -121.620106 252 4383ft 217kts
20-Jul-19 19:30 36.568305 -121.685337 273 3084ft 156kts
20-Jul-19 19:31 36.572081 -121.729077 275 2216ft 128kts
20-Jul-19 19:32 36.575603 -121.772049 272 1468ft 125kts
20-Jul-19 19:33 36.578791 -121.814757 277 601ft 118kts
20-Jul-19 19:34 36.587899 -121.847090 292 208ft 43kts
20-Jul-19 19:35 36.589268 -121.853659 279 208ft 27kts
20-Jul-19 19:36 36.589256 -121.858546 342 208ft 0kts

Navigation Log

Ident Type
Flight plan parsing failed, navigation log unavailable